Cherkasy, Ukraine
Current Conditions -  °F | °C
As of 9:00 PM on Monday 24 Nov 2014 (Local Time) from UKBB Reporting Station
Clear Clear  
Wind Chill:   Ceiling: Unl
Heat Index: 16°   Visibility: 4mi
Dew Point: 14°   Wind: 4mph
Humidity: 93%   Direction: 60°ENE
Pressure: 30.56"   Gusts: NA
Location:  49.43°N, 32.07°E
Report Text: UKBB 241800Z 06002MPS 6000 NSC M09/M10 Q1035 86820545 36820550 NOSIG
Loading
Personal Weather Stations






























Interactive Weather Map New forecast layout! Learn more

10-Day Weather Forecast

Advertisements
Track Severe Weather on mobile